createdAt,value
2018-08-16T00:00:13.168Z,27.47
2018-08-16T00:03:17.397Z,27.00
2018-08-16T00:06:21.616Z,28.37
2018-08-16T00:09:26.794Z,31.57
2018-08-16T00:12:31.009Z,26.03
2018-08-16T00:15:35.251Z,25.83
2018-08-16T00:18:39.476Z,28.43
2018-08-16T00:21:43.727Z,27.50
2018-08-16T00:24:47.944Z,29.20
2018-08-16T00:27:52.156Z,29.33
2018-08-16T00:30:56.404Z,26.57
2018-08-16T00:34:00.585Z,26.23
2018-08-16T00:37:04.800Z,25.37
2018-08-16T00:40:12.030Z,28.13
2018-08-16T00:43:16.292Z,27.03
2018-08-16T00:46:20.514Z,25.53
2018-08-16T00:49:24.784Z,26.03
2018-08-16T00:52:29.046Z,31.30
2018-08-16T00:55:33.277Z,29.57
2018-08-16T00:58:37.525Z,27.80
2018-08-16T01:01:41.733Z,30.30
2018-08-16T01:04:45.989Z,32.80
2018-08-16T01:07:50.214Z,36.40
2018-08-16T01:10:54.489Z,33.57
2018-08-16T01:13:58.725Z,36.83
2018-08-16T01:17:02.936Z,34.13
2018-08-16T01:20:07.573Z,35.23
2018-08-16T01:23:11.798Z,33.07
2018-08-16T01:26:16.069Z,34.50
2018-08-16T01:29:20.278Z,39.50
2018-08-16T01:32:24.540Z,36.53
2018-08-16T01:35:28.769Z,33.40
2018-08-16T01:38:33.038Z,38.73
2018-08-16T01:41:37.604Z,42.60
2018-08-16T01:44:41.856Z,43.87
2018-08-16T01:47:46.058Z,47.47
2018-08-16T01:50:50.300Z,47.87
2018-08-16T01:53:54.538Z,47.13
2018-08-16T01:56:59.628Z,46.73
2018-08-16T02:00:05.612Z,49.33
2018-08-16T02:03:09.837Z,43.77
2018-08-16T02:06:14.118Z,49.37
2018-08-16T02:09:18.393Z,54.60
2018-08-16T02:12:22.628Z,51.57
2018-08-16T02:15:26.853Z,56.80
2018-08-16T02:18:32.197Z,54.60
2018-08-16T02:21:37.305Z,51.47
2018-08-16T02:24:41.910Z,49.67
2018-08-16T02:27:46.476Z,55.83
2018-08-16T02:30:51.068Z,63.23
2018-08-16T02:33:55.861Z,60.50
2018-08-16T02:37:00.103Z,59.73
2018-08-16T02:40:04.820Z,62.00
2018-08-16T02:43:09.061Z,63.60
2018-08-16T02:46:13.317Z,68.60
2018-08-16T02:49:17.553Z,71.37
2018-08-16T02:52:21.785Z,59.37
2018-08-16T02:55:26.033Z,57.67
2018-08-16T02:58:30.280Z,56.73
2018-08-16T03:01:34.538Z,59.37
2018-08-16T03:04:38.784Z,63.53
2018-08-16T03:07:43.153Z,67.03
2018-08-16T03:10:47.377Z,66.07
2018-08-16T03:13:51.612Z,69.70
2018-08-16T03:16:56.041Z,62.47
2018-08-16T03:20:01.686Z,63.10
2018-08-16T03:23:05.992Z,56.43
2018-08-16T03:26:10.222Z,73.03
2018-08-16T03:29:14.557Z,70.00
2018-08-16T03:32:18.819Z,74.07
2018-08-16T03:35:23.089Z,75.97
2018-08-16T03:38:27.421Z,80.50
2018-08-16T03:41:31.688Z,78.30
2018-08-16T03:44:37.250Z,78.77
2018-08-16T03:47:42.223Z,85.33
2018-08-16T03:50:47.026Z,88.20
2018-08-16T03:53:52.060Z,84.50
2018-08-16T03:56:57.696Z,89.27
2018-08-16T04:00:02.929Z,87.30
2018-08-16T04:03:08.035Z,92.43
2018-08-16T04:06:12.933Z,94.20
2018-08-16T04:09:17.929Z,89.10
2018-08-16T04:12:23.313Z,87.00
2018-08-16T04:15:28.393Z,89.07
2018-08-16T04:18:32.693Z,86.17
2018-08-16T04:21:36.929Z,97.73
2018-08-16T04:24:41.146Z,91.23
2018-08-16T04:27:45.406Z,94.00
2018-08-16T04:30:49.670Z,91.83
2018-08-16T04:33:53.897Z,84.87
2018-08-16T04:36:58.140Z,84.83
2018-08-16T04:40:02.393Z,81.47
2018-08-16T04:43:06.897Z,82.33
2018-08-16T04:46:11.134Z,75.30
2018-08-16T04:49:15.382Z,70.77
2018-08-16T04:52:19.673Z,77.47
2018-08-16T04:55:23.905Z,70.63
2018-08-16T04:58:28.161Z,74.43
2018-08-16T05:01:32.360Z,70.30
2018-08-16T05:04:36.621Z,70.07
2018-08-16T05:07:40.875Z,73.73
2018-08-16T05:10:45.110Z,72.67
2018-08-16T05:13:49.313Z,63.20
2018-08-16T05:16:53.594Z,64.70
2018-08-16T05:19:57.841Z,63.17
2018-08-16T05:23:02.081Z,62.83
2018-08-16T05:26:07.135Z,58.63
2018-08-16T05:29:12.386Z,60.57
2018-08-16T05:32:17.242Z,59.50
2018-08-16T05:35:22.545Z,54.57
2018-08-16T05:38:27.623Z,57.37
2018-08-16T05:41:32.009Z,57.07
2018-08-16T05:44:36.207Z,56.60
2018-08-16T05:47:41.161Z,58.43
2018-08-16T05:50:46.349Z,57.53
2018-08-16T05:53:51.022Z,56.60
2018-08-16T05:56:55.674Z,57.37
2018-08-16T06:00:01.513Z,57.93
2018-08-16T06:03:06.119Z,56.80
2018-08-16T06:06:10.780Z,55.50
2018-08-16T06:09:16.026Z,61.60
2018-08-16T06:12:21.610Z,60.20
2018-08-16T06:15:26.125Z,61.17
2018-08-16T06:18:32.682Z,50.87
2018-08-16T06:21:38.269Z,55.27
2018-08-16T06:24:43.957Z,61.50
2018-08-16T06:27:49.457Z,57.67
2018-08-16T06:30:53.790Z,56.53
2018-08-16T06:33:58.379Z,53.20
2018-08-16T06:37:02.689Z,54.03
2018-08-16T06:40:11.957Z,53.73
2018-08-16T06:43:16.302Z,58.93
2018-08-16T06:46:20.670Z,55.30
2018-08-16T06:49:24.940Z,53.97
2018-08-16T06:52:29.271Z,54.57
2018-08-16T06:55:33.528Z,53.90
2018-08-16T06:58:37.810Z,51.93
2018-08-16T07:01:42.023Z,51.47
2018-08-16T07:04:46.356Z,48.10
2018-08-16T07:07:50.629Z,53.03
2018-08-16T07:10:54.885Z,49.03
2018-08-16T07:13:59.996Z,55.20
2018-08-16T07:17:04.715Z,52.00
2018-08-16T07:20:10.253Z,50.37
2018-08-16T07:23:15.395Z,49.90
2018-08-16T07:26:20.388Z,53.63
2018-08-16T07:29:25.243Z,50.70
2018-08-16T07:32:30.801Z,47.97
2018-08-16T07:35:36.534Z,45.30
2018-08-16T07:38:41.260Z,41.73
2018-08-16T07:41:46.060Z,46.03
2018-08-16T07:44:51.329Z,40.07
2018-08-16T07:47:55.861Z,39.07
2018-08-16T07:51:01.159Z,38.63
2018-08-16T07:54:06.327Z,40.87
2018-08-16T07:57:11.962Z,43.40
2018-08-16T08:00:19.679Z,41.10
2018-08-16T08:03:24.569Z,39.10
2018-08-16T08:06:29.358Z,34.60
2018-08-16T08:09:34.733Z,39.27
2018-08-16T08:12:38.982Z,29.07
2018-08-16T08:15:43.264Z,24.43
2018-08-16T08:18:47.521Z,27.63
2018-08-16T08:21:51.760Z,26.07
2018-08-16T08:24:55.996Z,24.43
2018-08-16T08:28:00.265Z,22.73
2018-08-16T08:31:04.545Z,21.33
2018-08-16T08:34:08.806Z,25.63
2018-08-16T08:37:30.140Z,28.60
2018-08-16T08:40:34.360Z,25.43
2018-08-16T08:43:55.679Z,18.80
2018-08-16T08:46:59.922Z,21.60
2018-08-16T08:50:04.177Z,17.20
2018-08-16T08:53:25.561Z,21.33
2018-08-16T08:56:46.937Z,17.17
2018-08-16T08:59:51.168Z,15.47
2018-08-16T09:02:55.452Z,15.20
2018-08-16T09:05:59.688Z,18.50
2018-08-16T09:09:04.107Z,14.63
2018-08-16T09:12:25.513Z,14.93
2018-08-16T09:15:46.343Z,14.17
2018-08-16T09:18:50.601Z,12.77
2018-08-16T09:21:54.833Z,11.00
2018-08-16T09:24:59.093Z,11.07
2018-08-16T09:28:03.330Z,10.07
2018-08-16T09:31:25.323Z,12.67
2018-08-16T09:34:29.560Z,11.70
2018-08-16T09:37:37.679Z,13.40
2018-08-16T09:40:41.934Z,12.67
2018-08-16T09:43:46.204Z,10.87
2018-08-16T09:47:09.404Z,14.33
2018-08-16T09:50:13.677Z,9.63
2018-08-16T09:53:17.976Z,10.73
2018-08-16T09:56:22.254Z,11.70
2018-08-16T09:59:27.478Z,13.50
2018-08-16T10:02:31.928Z,10.03
2018-08-16T10:05:36.342Z,12.40
2018-08-16T10:08:40.727Z,8.33
2018-08-16T10:11:46.103Z,11.33
2018-08-16T10:14:50.913Z,8.57
2018-08-16T10:17:55.881Z,13.90
2018-08-16T10:21:00.380Z,10.87
2018-08-16T10:24:04.949Z,11.70
2018-08-16T10:27:09.287Z,10.30
2018-08-16T10:30:13.555Z,10.00
2018-08-16T10:33:17.832Z,11.33
2018-08-16T10:36:22.138Z,10.27
2018-08-16T10:39:26.489Z,9.60
2018-08-16T10:42:30.714Z,9.13
2018-08-16T10:45:34.952Z,9.00
2018-08-16T10:48:39.194Z,9.97
2018-08-16T10:51:43.468Z,11.27
2018-08-16T10:54:47.722Z,6.47
2018-08-16T10:57:51.961Z,8.13
2018-08-16T11:00:56.197Z,7.90
2018-08-16T11:04:00.457Z,8.23
2018-08-16T11:07:04.823Z,6.23
2018-08-16T11:10:09.074Z,11.47
2018-08-16T11:13:13.329Z,8.00
2018-08-16T11:16:17.577Z,14.30
2018-08-16T11:19:21.832Z,12.40
2018-08-16T11:22:26.045Z,7.47
2018-08-16T11:25:30.264Z,9.07
2018-08-16T11:28:34.469Z,9.60
2018-08-16T11:31:38.713Z,10.73
2018-08-16T11:34:42.921Z,11.00
2018-08-16T11:37:47.153Z,11.27
2018-08-16T11:40:51.415Z,9.60
2018-08-16T11:43:55.650Z,12.27
2018-08-16T11:46:59.849Z,11.33
2018-08-16T11:50:04.433Z,9.07
2018-08-16T11:53:08.668Z,12.17
2018-08-16T11:56:12.941Z,11.33
2018-08-16T11:59:17.161Z,11.67
2018-08-16T12:02:21.420Z,13.37
2018-08-16T12:05:25.669Z,14.67
2018-08-16T12:08:29.913Z,12.23
2018-08-16T12:11:34.137Z,13.73
2018-08-16T12:14:38.381Z,17.90
2018-08-16T12:17:42.589Z,17.03
2018-08-16T12:20:46.789Z,14.60
2018-08-16T12:23:51.015Z,21.10
2018-08-16T12:26:55.237Z,14.50
2018-08-16T12:29:59.465Z,15.67
2018-08-16T12:33:03.684Z,16.77
2018-08-16T12:36:07.946Z,14.40
2018-08-16T12:39:12.156Z,16.00
2018-08-16T12:42:16.421Z,17.97
2018-08-16T12:45:20.660Z,14.60
2018-08-16T12:48:24.949Z,13.27
2018-08-16T12:51:29.181Z,13.20
2018-08-16T12:54:33.404Z,13.23
2018-08-16T12:57:37.643Z,15.27
2018-08-16T13:00:41.860Z,13.50
2018-08-16T13:03:46.113Z,12.60
2018-08-16T13:06:50.353Z,18.87
2018-08-16T13:09:54.577Z,18.07
2018-08-16T13:12:58.809Z,16.87
2018-08-16T13:16:03.053Z,16.43
2018-08-16T13:19:07.344Z,15.00
2018-08-16T13:22:11.591Z,17.90
2018-08-16T13:25:15.820Z,16.37
2018-08-16T13:28:20.075Z,13.97
2018-08-16T13:31:24.359Z,17.93
2018-08-16T13:34:28.536Z,16.87
2018-08-16T13:37:32.756Z,18.63
2018-08-16T13:40:36.982Z,13.77
2018-08-16T13:43:41.212Z,14.13
2018-08-16T13:46:45.433Z,14.13
2018-08-16T13:49:49.624Z,18.03
2018-08-16T13:52:53.858Z,13.47
2018-08-16T13:55:58.211Z,18.27
2018-08-16T13:59:02.456Z,13.10
2018-08-16T14:02:06.740Z,14.07
2018-08-16T14:05:11.077Z,13.73
2018-08-16T14:08:15.271Z,16.60
2018-08-16T14:11:19.493Z,16.43
2018-08-16T14:14:23.732Z,13.30
2018-08-16T14:17:27.976Z,20.60
2018-08-16T14:20:32.164Z,17.00
2018-08-16T14:23:36.410Z,18.57
2018-08-16T14:26:40.640Z,17.20
2018-08-16T14:29:44.898Z,12.97
2018-08-16T14:32:49.130Z,13.43
2018-08-16T14:35:53.377Z,15.20
2018-08-16T14:38:57.622Z,12.50
2018-08-16T14:42:02.090Z,12.80
2018-08-16T14:45:07.585Z,13.20
2018-08-16T14:48:12.405Z,16.20
2018-08-16T14:51:16.645Z,16.13
2018-08-16T14:54:20.898Z,13.70
2018-08-16T14:57:25.113Z,12.63
2018-08-16T15:00:29.360Z,13.30
2018-08-16T15:03:33.625Z,13.80
2018-08-16T15:06:37.800Z,14.30
2018-08-16T15:09:42.048Z,14.23
2018-08-16T15:12:46.341Z,13.17
2018-08-16T15:15:50.537Z,10.67
2018-08-16T15:18:54.791Z,12.27
2018-08-16T15:21:59.005Z,10.27
2018-08-16T15:25:03.249Z,10.87
2018-08-16T15:28:07.760Z,12.73
2018-08-16T15:31:11.989Z,11.00
2018-08-16T15:34:16.224Z,13.57
2018-08-16T15:37:20.486Z,15.00
2018-08-16T15:40:24.698Z,11.33
2018-08-16T15:43:28.888Z,12.23
2018-08-16T15:46:33.105Z,11.10
2018-08-16T15:49:37.385Z,9.53
2018-08-16T15:52:41.599Z,13.03
2018-08-16T15:55:45.893Z,11.53
2018-08-16T15:58:50.104Z,11.77
2018-08-16T16:01:54.357Z,8.37
2018-08-16T16:04:58.609Z,9.53
2018-08-16T16:08:02.833Z,9.37
2018-08-16T16:11:07.279Z,10.17
2018-08-16T16:14:11.541Z,10.90
2018-08-16T16:17:15.767Z,12.53
2018-08-16T16:20:20.113Z,9.73
2018-08-16T16:23:24.329Z,10.90
2018-08-16T16:26:28.622Z,9.53
2018-08-16T16:29:32.855Z,7.87
2018-08-16T16:32:37.236Z,8.13
2018-08-16T16:35:41.458Z,10.93
2018-08-16T16:38:45.677Z,9.07
2018-08-16T16:41:49.918Z,8.70
2018-08-16T16:44:54.161Z,12.60
2018-08-16T16:47:58.414Z,6.83
2018-08-16T16:51:02.622Z,7.03
2018-08-16T16:54:06.885Z,8.73
2018-08-16T16:57:11.122Z,8.50
2018-08-16T17:00:15.350Z,6.87
2018-08-16T17:03:19.554Z,9.30
2018-08-16T17:06:23.805Z,7.23
2018-08-16T17:09:28.049Z,11.87
2018-08-16T17:12:32.279Z,7.60
2018-08-16T17:15:36.515Z,9.10
2018-08-16T17:18:40.745Z,10.33
2018-08-16T17:21:44.936Z,7.63
2018-08-16T17:24:49.150Z,8.73
2018-08-16T17:27:53.412Z,15.77
2018-08-16T17:30:57.628Z,8.27
2018-08-16T17:34:02.485Z,6.40
2018-08-16T17:37:06.819Z,6.30
2018-08-16T17:40:11.072Z,11.10
2018-08-16T17:43:15.308Z,12.80
2018-08-16T17:46:19.548Z,7.17
2018-08-16T17:49:23.815Z,7.53
2018-08-16T17:52:28.761Z,8.10
2018-08-16T17:55:33.017Z,8.27
2018-08-16T17:58:37.267Z,7.83
2018-08-16T18:01:41.474Z,7.97
2018-08-16T18:04:45.745Z,8.07
2018-08-16T18:07:49.964Z,9.30
2018-08-16T18:10:54.249Z,7.50
2018-08-16T18:13:58.508Z,9.60
2018-08-16T18:17:02.769Z,6.70
2018-08-16T18:20:07.252Z,7.00
2018-08-16T18:23:11.474Z,7.17
2018-08-16T18:26:15.779Z,9.10
2018-08-16T18:29:19.981Z,9.77
2018-08-16T18:32:24.360Z,8.57
2018-08-16T18:35:28.606Z,8.27
2018-08-16T18:38:32.922Z,10.03
2018-08-16T18:41:37.740Z,7.70
2018-08-16T18:44:42.156Z,9.17
2018-08-16T18:47:46.325Z,7.40
2018-08-16T18:50:50.610Z,6.30
2018-08-16T18:53:54.934Z,7.40
2018-08-16T18:57:01.449Z,7.70
2018-08-16T19:00:07.544Z,6.70
2018-08-16T19:03:12.089Z,7.80
2018-08-16T19:06:16.645Z,11.00
2018-08-16T19:09:23.966Z,9.27
2018-08-16T19:12:28.837Z,8.67
2018-08-16T19:15:33.832Z,11.90
2018-08-16T19:18:40.693Z,13.13
2018-08-16T19:21:48.025Z,13.73
2018-08-16T19:24:52.992Z,13.87
2018-08-16T19:27:58.177Z,13.97
2018-08-16T19:31:02.485Z,14.17
2018-08-16T19:34:06.720Z,14.77
2018-08-16T19:37:10.973Z,16.27
2018-08-16T19:40:15.204Z,16.67
2018-08-16T19:43:19.481Z,15.97
2018-08-16T19:46:23.805Z,17.00
2018-08-16T19:49:31.439Z,19.33
2018-08-16T19:52:36.441Z,15.43
2018-08-16T19:55:41.424Z,17.57
2018-08-16T19:58:47.465Z,14.37
2018-08-16T20:01:52.648Z,15.93
2018-08-16T20:04:58.107Z,15.17
2018-08-16T20:08:03.348Z,15.17
2018-08-16T20:11:08.596Z,14.57
2018-08-16T20:14:13.308Z,17.73
2018-08-16T20:17:18.588Z,22.40
2018-08-16T20:20:23.698Z,17.50
2018-08-16T20:23:28.733Z,17.67
2018-08-16T20:26:34.441Z,18.87
2018-08-16T20:29:39.933Z,17.83
2018-08-16T20:32:45.464Z,16.53
2018-08-16T20:35:51.731Z,13.93
2018-08-16T20:38:57.020Z,15.57
2018-08-16T20:42:02.414Z,15.93
2018-08-16T20:45:07.641Z,14.30
2018-08-16T20:48:11.968Z,13.27
2018-08-16T20:51:16.198Z,15.10
2018-08-16T20:54:20.444Z,11.93
2018-08-16T20:57:24.752Z,12.70
2018-08-16T21:00:28.978Z,14.23
2018-08-16T21:03:33.234Z,12.53
2018-08-16T21:06:37.676Z,16.67
2018-08-16T21:09:41.887Z,12.60
2018-08-16T21:12:46.133Z,13.73
2018-08-16T21:15:50.373Z,18.33
2018-08-16T21:18:54.774Z,14.90
2018-08-16T21:21:59.026Z,18.20
2018-08-16T21:25:03.301Z,15.03
2018-08-16T21:28:07.589Z,13.33
2018-08-16T21:31:11.837Z,15.07
2018-08-16T21:34:16.105Z,14.40
2018-08-16T21:37:20.333Z,11.30
2018-08-16T21:40:24.607Z,13.80
2018-08-16T21:43:28.804Z,14.63
2018-08-16T21:46:33.065Z,14.33
2018-08-16T21:49:37.297Z,11.90
2018-08-16T21:52:41.561Z,12.67
2018-08-16T21:55:45.829Z,12.50
2018-08-16T21:58:50.057Z,11.20
2018-08-16T22:01:54.396Z,14.47
2018-08-16T22:04:58.619Z,10.93
2018-08-16T22:08:11.769Z,11.00
2018-08-16T22:11:16.034Z,13.60
2018-08-16T22:14:20.259Z,13.63
2018-08-16T22:17:24.493Z,15.50
2018-08-16T22:20:28.816Z,15.87
2018-08-16T22:23:33.040Z,13.23
2018-08-16T22:26:37.272Z,10.60
2018-08-16T22:29:41.529Z,11.70
2018-08-16T22:32:46.512Z,11.20
2018-08-16T22:35:50.769Z,11.37
2018-08-16T22:38:55.080Z,14.47
2018-08-16T22:41:59.329Z,13.50
2018-08-16T22:45:03.914Z,10.30
2018-08-16T22:48:08.413Z,11.33
2018-08-16T22:51:12.659Z,12.33
2018-08-16T22:54:16.878Z,9.27
2018-08-16T22:57:21.129Z,10.57
2018-08-16T23:00:25.373Z,12.87
2018-08-16T23:03:29.626Z,12.37
2018-08-16T23:06:33.873Z,12.77
2018-08-16T23:09:38.588Z,14.87
2018-08-16T23:12:42.900Z,16.23
2018-08-16T23:15:47.161Z,19.90
2018-08-16T23:18:51.404Z,17.37
2018-08-16T23:21:55.647Z,17.63
2018-08-16T23:24:59.909Z,17.50
2018-08-16T23:28:04.137Z,18.57
2018-08-16T23:31:08.380Z,14.67
2018-08-16T23:34:12.604Z,21.90
2018-08-16T23:37:16.841Z,22.90
2018-08-16T23:40:21.098Z,18.17
2018-08-16T23:43:25.321Z,18.73
2018-08-16T23:46:29.610Z,21.50
2018-08-16T23:49:33.850Z,20.83
2018-08-16T23:52:38.112Z,18.53
2018-08-16T23:55:42.364Z,19.17
2018-08-16T23:58:46.644Z,18.60
